createdAt,value
2018-11-29T00:00:55.681Z,57.63
2018-11-29T00:03:25.045Z,53.13
2018-11-29T00:05:54.669Z,55.00
2018-11-29T00:08:24.174Z,54.05
2018-11-29T00:10:53.959Z,56.73
2018-11-29T00:13:23.404Z,57.20
2018-11-29T00:15:53.252Z,53.23
2018-11-29T00:18:22.593Z,48.90
2018-11-29T00:20:51.956Z,50.90
2018-11-29T00:23:21.364Z,57.38
2018-11-29T00:25:50.735Z,49.50
2018-11-29T00:28:20.256Z,45.23
2018-11-29T00:30:49.597Z,50.43
2018-11-29T00:33:19.076Z,50.92
2018-11-29T00:35:48.537Z,42.95
2018-11-29T00:38:17.950Z,52.35
2018-11-29T00:40:47.403Z,49.00
2018-11-29T00:43:16.737Z,49.85
2018-11-29T00:45:46.517Z,50.88
2018-11-29T00:48:15.984Z,51.53
2018-11-29T00:50:45.425Z,49.20
2018-11-29T00:53:14.820Z,51.63
2018-11-29T00:55:44.227Z,56.15
2018-11-29T00:58:13.733Z,49.10
2018-11-29T01:00:43.107Z,51.07
2018-11-29T01:03:12.463Z,54.65
2018-11-29T01:05:41.861Z,52.48
2018-11-29T01:08:11.233Z,50.67
2018-11-29T01:10:40.782Z,52.00
2018-11-29T01:13:10.144Z,49.93
2018-11-29T01:15:39.507Z,52.80
2018-11-29T01:18:08.945Z,55.30
2018-11-29T01:20:38.343Z,49.73
2018-11-29T01:23:07.740Z,58.63
2018-11-29T01:25:37.135Z,49.83
2018-11-29T01:28:06.662Z,44.98
2018-11-29T01:30:36.110Z,46.08
2018-11-29T01:33:05.478Z,48.02
2018-11-29T01:35:35.138Z,43.60
2018-11-29T01:38:04.540Z,43.33
2018-11-29T01:40:34.094Z,43.80
2018-11-29T01:43:03.507Z,47.67
2018-11-29T01:45:32.936Z,49.53
2018-11-29T01:48:02.519Z,46.40
2018-11-29T01:50:31.937Z,45.70
2018-11-29T01:53:01.445Z,41.28
2018-11-29T01:55:30.876Z,43.95
2018-11-29T01:58:00.228Z,44.35
2018-11-29T02:00:29.673Z,42.80
2018-11-29T02:02:59.044Z,41.18
2018-11-29T02:05:28.544Z,44.35
2018-11-29T02:07:57.951Z,44.65
2018-11-29T02:10:27.858Z,39.57
2018-11-29T02:12:57.300Z,42.23
2018-11-29T02:15:26.675Z,47.20
2018-11-29T02:17:56.151Z,43.75
2018-11-29T02:20:25.537Z,39.33
2018-11-29T02:22:55.127Z,41.80
2018-11-29T02:25:24.481Z,44.60
2018-11-29T02:27:53.849Z,42.25
2018-11-29T02:30:23.594Z,42.62
2018-11-29T02:32:53.118Z,41.60
2018-11-29T02:35:22.564Z,41.28
2018-11-29T02:37:51.950Z,44.95
2018-11-29T02:40:21.357Z,42.35
2018-11-29T02:42:50.920Z,45.28
2018-11-29T02:45:21.541Z,39.80
2018-11-29T02:47:50.909Z,38.23
2018-11-29T02:50:20.277Z,43.00
2018-11-29T02:52:49.783Z,37.13
2018-11-29T02:55:19.275Z,36.28
2018-11-29T02:57:48.635Z,42.25
2018-11-29T03:00:18.858Z,40.67
2018-11-29T03:02:48.388Z,33.78
2018-11-29T03:05:18.531Z,41.35
2018-11-29T03:07:47.891Z,37.67
2018-11-29T03:10:22.704Z,37.83
2018-11-29T03:12:52.092Z,36.80
2018-11-29T03:15:21.444Z,35.40
2018-11-29T03:17:50.833Z,38.17
2018-11-29T03:20:20.168Z,34.18
2018-11-29T03:22:49.812Z,31.62
2018-11-29T03:25:19.190Z,41.37
2018-11-29T03:27:48.524Z,40.10
2018-11-29T03:30:19.946Z,36.55
2018-11-29T03:32:49.277Z,39.78
2018-11-29T03:35:18.794Z,34.65
2018-11-29T03:37:48.160Z,36.53
2018-11-29T03:40:17.638Z,39.40
2018-11-29T03:42:47.035Z,36.42
2018-11-29T03:45:16.904Z,39.18
2018-11-29T03:47:46.638Z,35.13
2018-11-29T03:50:17.932Z,38.13
2018-11-29T03:52:47.554Z,37.93
2018-11-29T03:55:16.981Z,35.55
2018-11-29T03:57:46.420Z,39.60
2018-11-29T04:00:16.785Z,36.80
2018-11-29T04:02:47.265Z,41.08
2018-11-29T04:05:16.806Z,34.15
2018-11-29T04:07:46.258Z,30.25
2018-11-29T04:10:16.420Z,36.53
2018-11-29T04:12:45.861Z,33.48
2018-11-29T04:15:15.869Z,34.58
2018-11-29T04:17:45.512Z,31.80
2018-11-29T04:20:15.819Z,26.77
2018-11-29T04:22:45.256Z,32.95
2018-11-29T04:25:15.207Z,30.02
2018-11-29T04:27:44.867Z,24.98
2018-11-29T04:30:16.247Z,34.63
2018-11-29T04:32:45.984Z,31.20
2018-11-29T04:35:16.249Z,30.92
2018-11-29T04:37:45.678Z,33.65
2018-11-29T04:40:15.980Z,25.72
2018-11-29T04:42:45.473Z,27.70
2018-11-29T04:45:16.038Z,32.42
2018-11-29T04:47:45.855Z,29.98
2018-11-29T04:50:16.172Z,23.20
2018-11-29T04:52:45.596Z,23.27
2018-11-29T04:55:15.039Z,24.90
2018-11-29T04:57:44.660Z,29.42
2018-11-29T05:00:15.195Z,29.40
2018-11-29T05:02:44.869Z,18.42
2018-11-29T05:05:14.578Z,35.80
2018-11-29T05:07:43.992Z,25.43
2018-11-29T05:10:16.982Z,32.58
2018-11-29T05:12:47.191Z,29.20
2018-11-29T05:15:16.536Z,30.37
2018-11-29T05:17:45.949Z,28.25
2018-11-29T05:20:15.364Z,29.75
2018-11-29T05:22:44.865Z,23.83
2018-11-29T05:25:14.364Z,34.33
2018-11-29T05:27:43.883Z,29.45
2018-11-29T05:30:14.168Z,31.90
2018-11-29T05:32:43.631Z,26.55
2018-11-29T05:35:13.310Z,31.10
2018-11-29T05:37:42.860Z,26.65
2018-11-29T05:40:13.431Z,35.15
2018-11-29T05:42:43.203Z,27.40
2018-11-29T05:45:12.706Z,28.42
2018-11-29T05:47:42.112Z,27.85
2018-11-29T05:50:12.118Z,31.37
2018-11-29T05:52:41.931Z,29.45
2018-11-29T05:55:11.837Z,33.25
2018-11-29T05:57:41.348Z,27.90
2018-11-29T06:00:14.662Z,23.57
2018-11-29T06:02:44.727Z,29.02
2018-11-29T06:05:15.847Z,30.77
2018-11-29T06:07:45.459Z,30.52
2018-11-29T06:10:17.808Z,33.88
2018-11-29T06:12:47.713Z,28.92
2018-11-29T06:15:17.116Z,32.63
2018-11-29T06:17:46.826Z,32.17
2018-11-29T06:20:17.727Z,29.48
2018-11-29T06:22:47.125Z,25.52
2018-11-29T06:25:16.540Z,30.12
2018-11-29T06:27:45.902Z,30.68
2018-11-29T06:30:16.438Z,27.60
2018-11-29T06:32:45.878Z,30.02
2018-11-29T06:35:15.164Z,25.08
2018-11-29T06:37:44.594Z,29.20
2018-11-29T06:40:14.679Z,22.02
2018-11-29T06:42:44.111Z,25.23
2018-11-29T06:45:16.554Z,25.45
2018-11-29T06:47:46.108Z,21.25
2018-11-29T06:50:15.860Z,24.52
2018-11-29T06:52:45.850Z,27.90
2018-11-29T06:55:16.751Z,22.42
2018-11-29T06:57:45.184Z,25.50
2018-11-29T07:00:15.180Z,19.98
2018-11-29T07:02:43.728Z,23.85
2018-11-29T07:05:13.618Z,22.55
2018-11-29T07:07:42.500Z,21.90
2018-11-29T07:10:11.476Z,19.17
2018-11-29T07:12:40.819Z,19.80
2018-11-29T07:15:16.008Z,21.68
2018-11-29T07:17:46.570Z,19.98
2018-11-29T07:20:16.369Z,23.36
2018-11-29T07:22:45.298Z,31.57
2018-11-29T07:25:13.792Z,17.37
2018-11-29T07:27:42.317Z,21.68
2018-11-29T07:30:18.128Z,22.95
2018-11-29T07:32:47.026Z,20.30
2018-11-29T07:35:16.315Z,19.40
2018-11-29T07:37:44.928Z,23.07
2018-11-29T07:40:17.468Z,21.73
2018-11-29T07:42:47.144Z,20.45
2018-11-29T07:45:19.307Z,25.68
2018-11-29T07:47:48.100Z,24.95
2018-11-29T07:50:18.664Z,25.48
2018-11-29T07:52:47.216Z,27.70
2018-11-29T07:55:16.616Z,24.63
2018-11-29T07:57:45.653Z,25.00
2018-11-29T08:00:15.484Z,26.07
2018-11-29T08:02:44.057Z,24.63
2018-11-29T08:05:13.588Z,26.73
2018-11-29T08:07:47.591Z,28.05
2018-11-29T08:10:23.895Z,28.38
2018-11-29T08:12:52.416Z,22.80
2018-11-29T08:15:21.773Z,27.93
2018-11-29T08:17:50.242Z,29.20
2018-11-29T08:20:19.648Z,28.23
2018-11-29T08:22:48.194Z,29.00
2018-11-29T08:25:16.634Z,31.62
2018-11-29T08:27:45.116Z,32.73
2018-11-29T08:30:14.812Z,33.08
2018-11-29T08:32:43.267Z,24.07
2018-11-29T08:35:12.754Z,28.23
2018-11-29T08:37:42.190Z,32.28
2018-11-29T08:40:15.233Z,25.92
2018-11-29T08:42:43.673Z,33.40
2018-11-29T08:51:58.940Z,26.20
2018-11-29T08:54:27.433Z,24.98
2018-11-29T08:56:56.064Z,29.70
2018-11-29T08:59:24.645Z,29.37
2018-11-29T09:01:53.236Z,25.47
2018-11-29T09:04:21.708Z,48.48
2018-11-29T09:06:50.431Z,49.40
2018-11-29T09:09:19.444Z,31.48
2018-11-29T09:11:48.012Z,28.03
2018-11-29T09:14:16.580Z,30.77
2018-11-29T09:16:45.025Z,33.48
2018-11-29T09:19:13.500Z,30.45
2018-11-29T09:21:41.953Z,33.07
2018-11-29T09:24:10.441Z,30.25
2018-11-29T09:26:38.891Z,25.45
2018-11-29T09:29:07.428Z,25.55
2018-11-29T09:31:35.892Z,27.93
2018-11-29T09:34:04.395Z,31.23
2018-11-29T09:36:48.835Z,27.93
2018-11-29T09:39:17.413Z,30.43
2018-11-29T09:41:45.835Z,23.40
2018-11-29T09:44:14.409Z,24.40
2018-11-29T09:46:42.930Z,30.60
2018-11-29T09:49:12.496Z,29.70
2018-11-29T09:51:41.005Z,31.67
2018-11-29T09:54:09.412Z,20.60
2018-11-29T09:56:37.959Z,23.20
2018-11-29T09:59:06.620Z,25.00
2018-11-29T10:01:35.153Z,21.35
2018-11-29T10:04:03.639Z,21.23
2018-11-29T10:06:32.319Z,22.17
2018-11-29T10:09:00.844Z,21.70
2018-11-29T10:11:29.241Z,21.47
2018-11-29T10:13:57.689Z,18.07
2018-11-29T10:16:26.140Z,19.13
2018-11-29T10:18:55.211Z,18.10
2018-11-29T10:21:23.619Z,18.50
2018-11-29T10:23:52.074Z,16.67
2018-11-29T10:26:20.494Z,14.60
2018-11-29T10:28:48.939Z,18.73
2018-11-29T10:31:17.452Z,19.17
2018-11-29T10:33:45.917Z,21.37
2018-11-29T10:36:14.531Z,22.87
2018-11-29T10:38:42.940Z,19.93
2018-11-29T10:41:12.894Z,16.50
2018-11-29T10:43:40.033Z,18.90
2018-11-29T10:46:08.500Z,19.83
2018-11-29T10:48:37.064Z,18.53
2018-11-29T10:51:06.244Z,13.53
2018-11-29T10:53:37.730Z,21.57
2018-11-29T10:56:03.398Z,20.83
2018-11-29T10:58:31.811Z,22.70
2018-11-29T11:01:05.398Z,18.10
2018-11-29T11:03:34.084Z,23.63
2018-11-29T11:06:02.591Z,18.90
2018-11-29T11:08:32.052Z,18.43
2018-11-29T11:11:05.041Z,15.93
2018-11-29T11:13:33.466Z,17.13
2018-11-29T11:16:02.029Z,19.80
2018-11-29T11:18:30.447Z,20.83
2018-11-29T11:20:59.075Z,19.17
2018-11-29T11:23:27.614Z,23.17
2018-11-29T11:25:56.124Z,22.30
2018-11-29T11:28:24.672Z,17.03
2018-11-29T11:30:53.255Z,25.33
2018-11-29T11:33:21.924Z,18.33
2018-11-29T11:35:50.347Z,18.67
2018-11-29T11:38:18.904Z,15.60
2018-11-29T11:40:47.455Z,18.17
2018-11-29T11:43:16.052Z,19.03
2018-11-29T11:45:44.573Z,19.37
2018-11-29T11:48:13.162Z,22.93
2018-11-29T11:50:41.724Z,19.60
2018-11-29T11:53:10.637Z,22.33
2018-11-29T11:55:39.273Z,23.27
2018-11-29T11:58:08.357Z,19.43
2018-11-29T12:00:37.177Z,26.60
2018-11-29T12:03:14.832Z,23.33
2018-11-29T12:05:43.292Z,25.73
2018-11-29T12:08:11.784Z,23.13
2018-11-29T12:10:42.433Z,22.53
2018-11-29T12:13:10.926Z,22.47
2018-11-29T12:15:39.476Z,21.70
2018-11-29T12:18:10.493Z,22.97
2018-11-29T12:20:38.960Z,24.97
2018-11-29T12:23:07.884Z,26.37
2018-11-29T12:25:36.319Z,25.30
2018-11-29T12:28:04.828Z,23.80
2018-11-29T12:30:36.128Z,28.20
2018-11-29T12:33:06.148Z,28.73
2018-11-29T12:35:34.575Z,21.43
2018-11-29T12:38:03.300Z,24.00
2018-11-29T12:40:31.750Z,21.60
2018-11-29T12:43:00.172Z,22.80
2018-11-29T12:45:28.679Z,25.33
2018-11-29T12:47:57.165Z,24.10
2018-11-29T12:50:27.063Z,20.43
2018-11-29T12:52:55.541Z,25.33
2018-11-29T12:55:26.070Z,28.17
2018-11-29T12:58:05.298Z,25.10
2018-11-29T13:00:23.973Z,23.73
2018-11-29T13:02:56.208Z,25.80
2018-11-29T13:05:24.864Z,23.87
2018-11-29T13:07:53.485Z,26.93
2018-11-29T13:10:23.820Z,23.97
2018-11-29T13:12:52.307Z,26.60
2018-11-29T13:15:23.868Z,26.40
2018-11-29T13:17:52.229Z,24.53
2018-11-29T13:20:20.720Z,24.17
2018-11-29T13:22:49.254Z,24.27
2018-11-29T13:25:18.900Z,26.70
2018-11-29T13:27:48.527Z,24.93
2018-11-29T13:30:20.449Z,27.47
2018-11-29T13:32:49.794Z,27.53
2018-11-29T13:35:20.895Z,21.50
2018-11-29T13:37:55.422Z,26.47
2018-11-29T13:40:24.024Z,27.43
2018-11-29T13:42:52.600Z,23.73
2018-11-29T13:45:21.091Z,26.07
2018-11-29T13:47:50.011Z,28.03
2018-11-29T13:50:18.858Z,28.77
2018-11-29T13:52:47.458Z,26.73
2018-11-29T13:55:16.562Z,29.33
2018-11-29T13:57:46.111Z,29.63
2018-11-29T14:00:15.936Z,25.23
2018-11-29T14:02:47.102Z,28.20
2018-11-29T14:05:14.793Z,26.90
2018-11-29T14:07:43.356Z,28.03
2018-11-29T14:10:16.951Z,29.77
2018-11-29T14:12:47.240Z,31.60
2018-11-29T14:15:17.895Z,33.50
2018-11-29T14:17:46.615Z,32.23
2018-11-29T14:20:15.376Z,37.03
2018-11-29T14:22:44.133Z,31.33
2018-11-29T14:25:14.282Z,32.53
2018-11-29T14:27:45.310Z,34.73
2018-11-29T14:30:15.259Z,34.07
2018-11-29T14:32:43.832Z,33.33
2018-11-29T14:35:12.524Z,33.57
2018-11-29T14:37:41.107Z,30.20
2018-11-29T14:40:12.148Z,32.03
2018-11-29T14:42:41.023Z,41.73
2018-11-29T14:45:13.829Z,30.70
2018-11-29T14:47:42.460Z,28.90
2018-11-29T14:50:17.980Z,33.33
2018-11-29T14:52:48.587Z,29.80
2018-11-29T14:55:18.103Z,31.13
2018-11-29T14:57:47.404Z,33.50
2018-11-29T15:00:16.795Z,29.30
2018-11-29T15:02:46.250Z,31.70
2018-11-29T15:05:24.582Z,30.73
2018-11-29T15:07:53.977Z,31.93
2018-11-29T15:10:23.358Z,36.37
2018-11-29T15:12:52.929Z,35.57
2018-11-29T15:15:22.327Z,34.33
2018-11-29T15:17:53.844Z,40.83
2018-11-29T15:20:24.813Z,36.47
2018-11-29T15:22:54.364Z,40.67
2018-11-29T15:25:23.856Z,36.13
2018-11-29T15:27:53.227Z,41.50
2018-11-29T15:30:23.291Z,39.27
2018-11-29T15:32:53.370Z,33.67
2018-11-29T15:35:23.010Z,33.73
2018-11-29T15:37:52.629Z,27.97
2018-11-29T15:40:21.969Z,25.23
2018-11-29T15:42:51.457Z,24.50
2018-11-29T15:45:21.980Z,27.80
2018-11-29T15:47:51.620Z,28.10
2018-11-29T15:50:21.109Z,25.63
2018-11-29T15:52:50.478Z,24.65
2018-11-29T15:55:21.189Z,28.92
2018-11-29T15:57:51.628Z,22.77
2018-11-29T16:00:23.022Z,35.83
2018-11-29T16:02:52.713Z,37.48
2018-11-29T16:05:22.091Z,25.80
2018-11-29T16:07:51.512Z,32.67
2018-11-29T16:10:23.167Z,26.27
2018-11-29T16:12:52.712Z,28.50
2018-11-29T16:15:22.510Z,27.77
2018-11-29T16:17:52.605Z,30.03
2018-11-29T16:20:24.163Z,28.53
2018-11-29T16:22:53.705Z,30.55
2018-11-29T16:25:23.368Z,29.30
2018-11-29T16:27:53.826Z,28.30
2018-11-29T16:30:39.845Z,27.95
2018-11-29T16:33:12.069Z,26.23
2018-11-29T16:35:41.633Z,24.90
2018-11-29T16:38:11.057Z,30.13
2018-11-29T16:40:40.610Z,33.43
2018-11-29T16:43:10.100Z,26.02
2018-11-29T16:45:39.881Z,29.98
2018-11-29T16:48:09.452Z,29.98
2018-11-29T16:50:39.225Z,33.60
2018-11-29T16:53:08.879Z,35.48
2018-11-29T16:55:38.897Z,28.75
2018-11-29T16:58:14.561Z,32.63
2018-11-29T17:00:44.050Z,27.97
2018-11-29T17:03:13.535Z,25.37
2018-11-29T17:05:42.979Z,31.82
2018-11-29T17:08:12.484Z,32.30
2018-11-29T17:10:42.041Z,29.35
2018-11-29T17:13:13.136Z,28.02
2018-11-29T17:15:42.610Z,30.72
2018-11-29T17:18:12.087Z,35.40
2018-11-29T17:20:41.561Z,32.27
2018-11-29T17:23:11.875Z,36.23
2018-11-29T17:25:41.631Z,41.05
2018-11-29T17:28:11.086Z,40.05
2018-11-29T17:30:40.664Z,44.10
2018-11-29T17:33:10.424Z,37.60
2018-11-29T17:35:39.928Z,37.63
2018-11-29T17:38:09.561Z,42.63
2018-11-29T17:40:39.917Z,41.73
2018-11-29T17:43:09.724Z,38.20
2018-11-29T17:45:39.470Z,38.15
2018-11-29T17:48:11.130Z,42.33
2018-11-29T17:50:41.856Z,42.27
2018-11-29T17:53:11.711Z,40.90
2018-11-29T17:55:41.278Z,40.38
2018-11-29T17:58:15.281Z,41.35
2018-11-29T18:00:49.420Z,41.60
2018-11-29T18:03:22.122Z,36.58
2018-11-29T18:05:51.610Z,35.45
2018-11-29T18:08:21.194Z,38.42
2018-11-29T18:10:52.829Z,33.57
2018-11-29T18:13:26.119Z,38.48
2018-11-29T18:15:55.862Z,40.15
2018-11-29T18:18:25.395Z,37.35
2018-11-29T18:20:55.362Z,40.67
2018-11-29T18:23:24.883Z,38.42
2018-11-29T18:25:54.391Z,37.93
2018-11-29T18:28:24.117Z,38.33
2018-11-29T18:30:53.860Z,35.43
2018-11-29T18:33:23.550Z,36.13
2018-11-29T18:35:53.199Z,33.02
2018-11-29T18:38:22.817Z,38.00
2018-11-29T18:40:52.376Z,38.17
2018-11-29T18:43:22.025Z,39.75
2018-11-29T18:45:51.800Z,35.08
2018-11-29T18:48:21.412Z,39.42
2018-11-29T18:50:50.957Z,35.07
2018-11-29T18:53:20.484Z,39.23
2018-11-29T18:55:51.129Z,44.65
2018-11-29T18:58:20.691Z,38.40
2018-11-29T19:00:52.198Z,42.43
2018-11-29T19:03:21.798Z,39.80
2018-11-29T19:05:51.572Z,36.53
2018-11-29T19:08:21.141Z,40.43
2018-11-29T19:10:51.237Z,37.27
2018-11-29T19:13:21.373Z,35.55
2018-11-29T19:15:51.021Z,36.30
2018-11-29T19:18:20.795Z,37.23
2018-11-29T19:20:50.510Z,27.53
2018-11-29T19:23:20.789Z,38.25
2018-11-29T19:25:50.427Z,36.42
2018-11-29T19:28:20.684Z,35.98
2018-11-29T19:30:50.940Z,29.73
2018-11-29T19:33:21.927Z,31.40
2018-11-29T19:35:54.073Z,31.97
2018-11-29T19:38:23.720Z,28.90
2018-11-29T19:40:53.313Z,30.90
2018-11-29T19:43:22.869Z,30.23
2018-11-29T19:45:52.454Z,27.80
2018-11-29T19:48:23.278Z,30.17
2018-11-29T19:50:52.622Z,27.80
2018-11-29T19:53:24.622Z,27.37
2018-11-29T19:55:59.539Z,25.62
2018-11-29T19:58:29.431Z,22.73
2018-11-29T20:00:59.104Z,26.70
2018-11-29T20:03:28.603Z,29.95
2018-11-29T20:05:58.215Z,32.17
2018-11-29T20:08:27.786Z,26.77
2018-11-29T20:10:57.384Z,26.07
2018-11-29T20:13:27.066Z,22.42
2018-11-29T20:15:56.769Z,24.33
2018-11-29T20:18:26.445Z,25.08
2018-11-29T20:20:56.760Z,26.13
2018-11-29T20:23:26.395Z,26.90
2018-11-29T20:25:55.972Z,28.80
2018-11-29T20:28:25.528Z,27.25
2018-11-29T20:30:56.087Z,27.33
2018-11-29T20:33:25.723Z,25.02
2018-11-29T20:35:55.707Z,26.97
2018-11-29T20:38:25.233Z,26.50
2018-11-29T20:40:54.730Z,29.17
2018-11-29T20:43:24.351Z,28.40
2018-11-29T20:45:55.002Z,25.48
2018-11-29T20:48:28.048Z,30.52
2018-11-29T20:50:58.686Z,29.23
2018-11-29T20:53:35.973Z,27.60
2018-11-29T20:56:08.233Z,25.17
2018-11-29T20:58:38.072Z,31.63
2018-11-29T21:01:08.476Z,31.73
2018-11-29T21:03:38.223Z,30.53
2018-11-29T21:06:09.812Z,27.97
2018-11-29T21:08:39.321Z,27.07
2018-11-29T21:11:09.023Z,30.10
2018-11-29T21:13:38.574Z,31.27
2018-11-29T21:16:08.265Z,30.93
2018-11-29T21:18:37.828Z,28.23
2018-11-29T21:21:07.818Z,30.05
2018-11-29T21:23:39.849Z,28.60
2018-11-29T21:26:10.738Z,27.73
2018-11-29T21:28:40.250Z,30.20
2018-11-29T21:31:09.824Z,28.27
2018-11-29T21:33:39.349Z,29.63
2018-11-29T21:36:09.092Z,29.48
2018-11-29T21:38:38.690Z,32.83
2018-11-29T21:41:08.418Z,32.90
2018-11-29T21:43:38.238Z,32.08
2018-11-29T21:46:07.837Z,34.67
2018-11-29T21:48:38.536Z,29.07
2018-11-29T21:51:08.210Z,34.33
2018-11-29T21:53:37.819Z,28.77
2018-11-29T21:56:07.817Z,23.83
2018-11-29T21:58:37.661Z,27.25
2018-11-29T22:01:07.333Z,28.10
2018-11-29T22:03:37.077Z,29.65
2018-11-29T22:06:07.701Z,26.37
2018-11-29T22:08:37.323Z,27.75
2018-11-29T22:11:07.207Z,30.62
2018-11-29T22:13:36.819Z,24.30
2018-11-29T22:16:06.384Z,28.45
2018-11-29T22:18:35.950Z,25.05
2018-11-29T22:21:06.440Z,27.10
2018-11-29T22:23:37.294Z,23.77
2018-11-29T22:26:12.068Z,21.10
2018-11-29T22:28:42.288Z,27.17
2018-11-29T22:31:12.421Z,27.00
2018-11-29T22:33:41.926Z,27.85
2018-11-29T22:36:11.612Z,30.35
2018-11-29T22:38:44.413Z,25.27
2018-11-29T22:41:11.050Z,27.60
2018-11-29T22:43:40.559Z,26.23
2018-11-29T22:46:10.112Z,25.10
2018-11-29T22:48:39.785Z,26.23
2018-11-29T22:51:09.280Z,23.43
2018-11-29T22:53:38.932Z,20.88
2018-11-29T22:56:08.456Z,25.05
2018-11-29T22:58:38.101Z,26.68
2018-11-29T23:01:12.958Z,22.90
2018-11-29T23:03:42.463Z,23.87
2018-11-29T23:06:12.485Z,25.40
2018-11-29T23:08:42.057Z,24.45
2018-11-29T23:11:11.721Z,26.67
2018-11-29T23:13:41.368Z,22.07
2018-11-29T23:16:11.247Z,26.57
2018-11-29T23:18:41.925Z,23.40
2018-11-29T23:21:11.741Z,25.83
2018-11-29T23:23:42.325Z,25.30
2018-11-29T23:26:12.071Z,25.35
2018-11-29T23:30:11.032Z,24.92
2018-11-29T23:32:41.251Z,25.17
2018-11-29T23:35:11.166Z,21.07
2018-11-29T23:37:40.761Z,20.12
2018-11-29T23:40:18.278Z,26.62
2018-11-29T23:42:48.048Z,25.85
2018-11-29T23:45:17.634Z,22.42
2018-11-29T23:47:47.148Z,19.65
2018-11-29T23:50:17.513Z,21.05
2018-11-29T23:52:47.363Z,22.40
2018-11-29T23:55:19.254Z,21.27
2018-11-29T23:57:48.797Z,23.60
